sensor_id;sensor_type;location;lat;lon;timestamp;P1;durP1;ratioP1;P2;durP2;ratioP2
12788;SDS011;6458;42.710;23.192;2022-07-29T00:00:14;9.63;;;8.73;;
12788;SDS011;6458;42.710;23.192;2022-07-29T00:02:42;10.47;;;8.57;;
12788;SDS011;6458;42.710;23.192;2022-07-29T00:05:11;10.10;;;8.90;;
12788;SDS011;6458;42.710;23.192;2022-07-29T00:07:38;10.37;;;9.23;;
12788;SDS011;6458;42.710;23.192;2022-07-29T00:10:06;10.40;;;8.43;;
12788;SDS011;6458;42.710;23.192;2022-07-29T00:12:33;10.20;;;9.17;;
12788;SDS011;6458;42.710;23.192;2022-07-29T00:15:01;10.20;;;9.17;;
12788;SDS011;6458;42.710;23.192;2022-07-29T00:17:28;10.40;;;9.27;;
12788;SDS011;6458;42.710;23.192;2022-07-29T00:19:55;9.03;;;8.17;;
12788;SDS011;6458;42.710;23.192;2022-07-29T00:22:24;10.80;;;9.47;;
12788;SDS011;6458;42.710;23.192;2022-07-29T00:24:51;9.00;;;8.10;;
12788;SDS011;6458;42.710;23.192;2022-07-29T00:27:18;12.60;;;9.03;;
12788;SDS011;6458;42.710;23.192;2022-07-29T00:29:45;10.83;;;8.93;;
12788;SDS011;6458;42.710;23.192;2022-07-29T00:32:12;9.40;;;8.47;;
12788;SDS011;6458;42.710;23.192;2022-07-29T00:34:39;9.87;;;8.87;;
12788;SDS011;6458;42.710;23.192;2022-07-29T00:37:25;10.73;;;9.73;;
12788;SDS011;6458;42.710;23.192;2022-07-29T00:39:52;10.33;;;9.33;;
12788;SDS011;6458;42.710;23.192;2022-07-29T00:42:19;10.87;;;9.40;;
12788;SDS011;6458;42.710;23.192;2022-07-29T00:44:47;10.17;;;9.27;;
12788;SDS011;6458;42.710;23.192;2022-07-29T00:47:14;12.13;;;9.10;;
12788;SDS011;6458;42.710;23.192;2022-07-29T00:49:41;10.00;;;9.00;;
12788;SDS011;6458;42.710;23.192;2022-07-29T00:52:09;10.47;;;8.77;;
12788;SDS011;6458;42.710;23.192;2022-07-29T00:54:43;10.17;;;9.13;;
12788;SDS011;6458;42.710;23.192;2022-07-29T00:57:11;10.37;;;9.13;;
12788;SDS011;6458;42.710;23.192;2022-07-29T00:59:38;12.70;;;8.80;;
12788;SDS011;6458;42.710;23.192;2022-07-29T01:02:05;10.27;;;9.13;;
12788;SDS011;6458;42.710;23.192;2022-07-29T01:04:32;11.03;;;9.23;;
12788;SDS011;6458;42.710;23.192;2022-07-29T01:07:00;9.27;;;8.33;;
12788;SDS011;6458;42.710;23.192;2022-07-29T01:09:28;9.77;;;8.77;;
12788;SDS011;6458;42.710;23.192;2022-07-29T01:11:59;11.50;;;10.37;;
12788;SDS011;6458;42.710;23.192;2022-07-29T01:14:27;10.07;;;9.13;;
12788;SDS011;6458;42.710;23.192;2022-07-29T01:16:58;10.43;;;9.33;;
12788;SDS011;6458;42.710;23.192;2022-07-29T01:19:39;9.63;;;8.63;;
12788;SDS011;6458;42.710;23.192;2022-07-29T01:22:22;10.67;;;9.17;;
12788;SDS011;6458;42.710;23.192;2022-07-29T01:25:03;10.07;;;9.07;;
12788;SDS011;6458;42.710;23.192;2022-07-29T01:27:44;10.43;;;8.70;;
12788;SDS011;6458;42.710;23.192;2022-07-29T01:30:22;9.40;;;8.43;;
12788;SDS011;6458;42.710;23.192;2022-07-29T01:32:52;9.60;;;8.60;;
12788;SDS011;6458;42.710;23.192;2022-07-29T01:35:25;9.50;;;8.27;;
12788;SDS011;6458;42.710;23.192;2022-07-29T01:37:55;11.43;;;7.70;;
12788;SDS011;6458;42.710;23.192;2022-07-29T01:40:28;10.53;;;8.77;;
12788;SDS011;6458;42.710;23.192;2022-07-29T01:43:00;9.57;;;8.10;;
12788;SDS011;6458;42.710;23.192;2022-07-29T01:45:37;10.43;;;8.13;;
12788;SDS011;6458;42.710;23.192;2022-07-29T01:48:11;10.43;;;8.67;;
12788;SDS011;6458;42.710;23.192;2022-07-29T01:50:45;10.33;;;8.03;;
12788;SDS011;6458;42.710;23.192;2022-07-29T01:53:17;11.80;;;8.23;;
12788;SDS011;6458;42.710;23.192;2022-07-29T01:55:51;8.50;;;7.80;;
12788;SDS011;6458;42.710;23.192;2022-07-29T01:58:20;10.53;;;8.77;;
12788;SDS011;6458;42.710;23.192;2022-07-29T02:00:50;11.60;;;9.10;;
12788;SDS011;6458;42.710;23.192;2022-07-29T02:03:18;10.83;;;8.43;;
12788;SDS011;6458;42.710;23.192;2022-07-29T02:05:45;9.93;;;8.90;;
12788;SDS011;6458;42.710;23.192;2022-07-29T02:08:14;9.83;;;8.37;;
12788;SDS011;6458;42.710;23.192;2022-07-29T02:10:44;9.83;;;8.37;;
12788;SDS011;6458;42.710;23.192;2022-07-29T02:13:13;9.40;;;8.50;;
12788;SDS011;6458;42.710;23.192;2022-07-29T02:15:43;9.90;;;8.83;;
12788;SDS011;6458;42.710;23.192;2022-07-29T02:18:13;9.90;;;8.90;;
12788;SDS011;6458;42.710;23.192;2022-07-29T02:20:43;10.53;;;8.93;;
12788;SDS011;6458;42.710;23.192;2022-07-29T02:23:13;9.77;;;8.77;;
12788;SDS011;6458;42.710;23.192;2022-07-29T02:25:43;11.60;;;9.30;;
12788;SDS011;6458;42.710;23.192;2022-07-29T02:28:11;10.87;;;9.17;;
12788;SDS011;6458;42.710;23.192;2022-07-29T02:30:41;9.43;;;8.53;;
12788;SDS011;6458;42.710;23.192;2022-07-29T02:33:10;14.07;;;8.83;;
12788;SDS011;6458;42.710;23.192;2022-07-29T02:35:44;10.00;;;8.90;;
12788;SDS011;6458;42.710;23.192;2022-07-29T02:38:13;10.27;;;8.80;;
12788;SDS011;6458;42.710;23.192;2022-07-29T02:40:59;11.37;;;10.17;;
12788;SDS011;6458;42.710;23.192;2022-07-29T02:43:27;10.83;;;9.50;;
12788;SDS011;6458;42.710;23.192;2022-07-29T02:45:56;10.70;;;9.53;;
12788;SDS011;6458;42.710;23.192;2022-07-29T02:48:28;10.47;;;9.47;;
12788;SDS011;6458;42.710;23.192;2022-07-29T02:51:01;12.50;;;9.50;;
12788;SDS011;6458;42.710;23.192;2022-07-29T02:53:33;13.07;;;9.97;;
12788;SDS011;6458;42.710;23.192;2022-07-29T02:56:04;10.50;;;9.40;;
12788;SDS011;6458;42.710;23.192;2022-07-29T02:58:35;11.33;;;10.20;;
12788;SDS011;6458;42.710;23.192;2022-07-29T03:01:08;11.50;;;9.57;;
12788;SDS011;6458;42.710;23.192;2022-07-29T03:03:42;13.23;;;10.03;;
12788;SDS011;6458;42.710;23.192;2022-07-29T03:06:11;10.37;;;9.37;;
12788;SDS011;6458;42.710;23.192;2022-07-29T03:08:39;10.57;;;9.47;;
12788;SDS011;6458;42.710;23.192;2022-07-29T03:11:07;12.37;;;10.70;;
12788;SDS011;6458;42.710;23.192;2022-07-29T03:13:35;12.87;;;10.57;;
12788;SDS011;6458;42.710;23.192;2022-07-29T03:16:03;11.37;;;10.13;;
12788;SDS011;6458;42.710;23.192;2022-07-29T03:18:31;11.33;;;10.20;;
12788;SDS011;6458;42.710;23.192;2022-07-29T03:21:00;10.47;;;9.37;;
12788;SDS011;6458;42.710;23.192;2022-07-29T03:23:27;10.53;;;9.30;;
12788;SDS011;6458;42.710;23.192;2022-07-29T03:25:55;10.80;;;9.27;;
12788;SDS011;6458;42.710;23.192;2022-07-29T03:28:22;14.20;;;9.87;;
12788;SDS011;6458;42.710;23.192;2022-07-29T03:30:50;10.33;;;9.33;;
12788;SDS011;6458;42.710;23.192;2022-07-29T03:33:17;11.20;;;9.27;;
12788;SDS011;6458;42.710;23.192;2022-07-29T03:35:44;9.70;;;8.70;;
12788;SDS011;6458;42.710;23.192;2022-07-29T03:38:12;10.40;;;9.27;;
12788;SDS011;6458;42.710;23.192;2022-07-29T03:40:40;9.63;;;8.63;;
12788;SDS011;6458;42.710;23.192;2022-07-29T03:43:13;10.93;;;8.93;;
12788;SDS011;6458;42.710;23.192;2022-07-29T03:45:44;9.67;;;8.63;;
12788;SDS011;6458;42.710;23.192;2022-07-29T03:48:15;11.13;;;9.17;;
12788;SDS011;6458;42.710;23.192;2022-07-29T03:50:44;10.40;;;9.30;;
12788;SDS011;6458;42.710;23.192;2022-07-29T03:53:13;10.57;;;9.47;;
12788;SDS011;6458;42.710;23.192;2022-07-29T03:55:41;11.67;;;9.63;;
12788;SDS011;6458;42.710;23.192;2022-07-29T03:58:10;9.70;;;8.80;;
12788;SDS011;6458;42.710;23.192;2022-07-29T04:00:38;9.83;;;8.87;;
12788;SDS011;6458;42.710;23.192;2022-07-29T04:03:08;9.00;;;8.13;;
12788;SDS011;6458;42.710;23.192;2022-07-29T04:05:36;9.23;;;8.37;;
12788;SDS011;6458;42.710;23.192;2022-07-29T04:08:03;8.70;;;8.00;;
12788;SDS011;6458;42.710;23.192;2022-07-29T04:10:32;9.13;;;8.30;;
12788;SDS011;6458;42.710;23.192;2022-07-29T04:12:59;8.13;;;7.47;;
12788;SDS011;6458;42.710;23.192;2022-07-29T04:15:26;8.63;;;7.80;;
12788;SDS011;6458;42.710;23.192;2022-07-29T04:17:54;8.87;;;8.07;;
12788;SDS011;6458;42.710;23.192;2022-07-29T04:20:21;9.43;;;8.63;;
12788;SDS011;6458;42.710;23.192;2022-07-29T04:22:48;9.73;;;8.73;;
12788;SDS011;6458;42.710;23.192;2022-07-29T04:25:15;10.47;;;9.57;;
12788;SDS011;6458;42.710;23.192;2022-07-29T04:27:43;10.73;;;9.43;;
12788;SDS011;6458;42.710;23.192;2022-07-29T04:30:24;9.70;;;8.70;;
12788;SDS011;6458;42.710;23.192;2022-07-29T04:32:51;10.60;;;9.60;;
12788;SDS011;6458;42.710;23.192;2022-07-29T04:35:18;10.57;;;9.67;;
12788;SDS011;6458;42.710;23.192;2022-07-29T04:37:45;10.03;;;9.03;;
12788;SDS011;6458;42.710;23.192;2022-07-29T04:40:13;10.77;;;9.70;;
12788;SDS011;6458;42.710;23.192;2022-07-29T04:42:40;11.97;;;9.97;;
12788;SDS011;6458;42.710;23.192;2022-07-29T04:45:08;10.87;;;9.80;;
12788;SDS011;6458;42.710;23.192;2022-07-29T04:47:36;12.53;;;10.13;;
12788;SDS011;6458;42.710;23.192;2022-07-29T04:50:03;11.30;;;10.03;;
12788;SDS011;6458;42.710;23.192;2022-07-29T04:52:32;11.60;;;10.47;;
12788;SDS011;6458;42.710;23.192;2022-07-29T04:54:59;11.30;;;10.10;;
12788;SDS011;6458;42.710;23.192;2022-07-29T04:57:26;12.80;;;11.57;;
12788;SDS011;6458;42.710;23.192;2022-07-29T04:59:53;11.83;;;10.63;;
12788;SDS011;6458;42.710;23.192;2022-07-29T05:02:22;12.57;;;11.27;;
12788;SDS011;6458;42.710;23.192;2022-07-29T05:04:49;12.23;;;11.10;;
12788;SDS011;6458;42.710;23.192;2022-07-29T05:07:16;12.93;;;11.63;;
12788;SDS011;6458;42.710;23.192;2022-07-29T05:09:43;12.63;;;11.30;;
12788;SDS011;6458;42.710;23.192;2022-07-29T05:12:12;12.17;;;10.87;;
12788;SDS011;6458;42.710;23.192;2022-07-29T05:14:39;12.37;;;11.13;;
12788;SDS011;6458;42.710;23.192;2022-07-29T05:17:06;13.33;;;11.97;;
12788;SDS011;6458;42.710;23.192;2022-07-29T05:19:35;12.23;;;11.03;;
12788;SDS011;6458;42.710;23.192;2022-07-29T05:22:02;12.13;;;11.00;;
12788;SDS011;6458;42.710;23.192;2022-07-29T05:24:29;12.20;;;11.10;;
12788;SDS011;6458;42.710;23.192;2022-07-29T05:26:56;12.47;;;11.27;;
12788;SDS011;6458;42.710;23.192;2022-07-29T05:29:23;12.20;;;11.03;;
12788;SDS011;6458;42.710;23.192;2022-07-29T05:31:49;12.57;;;11.37;;
12788;SDS011;6458;42.710;23.192;2022-07-29T05:34:17;11.97;;;10.77;;
12788;SDS011;6458;42.710;23.192;2022-07-29T05:36:46;14.27;;;12.17;;
12788;SDS011;6458;42.710;23.192;2022-07-29T05:39:13;13.10;;;11.80;;
12788;SDS011;6458;42.710;23.192;2022-07-29T05:41:40;12.37;;;11.27;;
12788;SDS011;6458;42.710;23.192;2022-07-29T05:44:07;12.23;;;11.13;;
12788;SDS011;6458;42.710;23.192;2022-07-29T05:46:34;12.07;;;10.87;;
12788;SDS011;6458;42.710;23.192;2022-07-29T05:49:01;12.27;;;11.17;;
12788;SDS011;6458;42.710;23.192;2022-07-29T05:51:28;12.50;;;11.30;;
12788;SDS011;6458;42.710;23.192;2022-07-29T05:53:57;12.13;;;10.93;;
12788;SDS011;6458;42.710;23.192;2022-07-29T05:56:24;11.50;;;10.40;;
12788;SDS011;6458;42.710;23.192;2022-07-29T05:58:51;12.13;;;10.83;;
12788;SDS011;6458;42.710;23.192;2022-07-29T06:01:19;11.57;;;10.47;;
12788;SDS011;6458;42.710;23.192;2022-07-29T06:03:46;10.87;;;9.87;;
12788;SDS011;6458;42.710;23.192;2022-07-29T06:06:13;11.07;;;9.97;;
12788;SDS011;6458;42.710;23.192;2022-07-29T06:08:40;11.23;;;10.13;;
12788;SDS011;6458;42.710;23.192;2022-07-29T06:11:08;11.10;;;10.00;;
12788;SDS011;6458;42.710;23.192;2022-07-29T06:13:35;10.87;;;9.80;;
12788;SDS011;6458;42.710;23.192;2022-07-29T06:16:03;12.70;;;11.50;;
12788;SDS011;6458;42.710;23.192;2022-07-29T06:18:30;11.87;;;10.60;;
12788;SDS011;6458;42.710;23.192;2022-07-29T06:20:57;11.60;;;10.57;;
12788;SDS011;6458;42.710;23.192;2022-07-29T06:23:24;12.47;;;11.27;;
12788;SDS011;6458;42.710;23.192;2022-07-29T06:25:52;12.33;;;11.23;;
12788;SDS011;6458;42.710;23.192;2022-07-29T06:28:20;12.70;;;11.53;;
12788;SDS011;6458;42.710;23.192;2022-07-29T06:30:47;12.77;;;11.50;;
12788;SDS011;6458;42.710;23.192;2022-07-29T06:33:17;12.13;;;10.93;;
12788;SDS011;6458;42.710;23.192;2022-07-29T06:35:45;13.90;;;12.60;;
12788;SDS011;6458;42.710;23.192;2022-07-29T06:38:13;13.23;;;11.93;;
12788;SDS011;6458;42.710;23.192;2022-07-29T06:40:41;14.50;;;12.87;;
12788;SDS011;6458;42.710;23.192;2022-07-29T06:43:29;13.33;;;12.03;;
12788;SDS011;6458;42.710;23.192;2022-07-29T06:46:02;12.77;;;11.47;;
12788;SDS011;6458;42.710;23.192;2022-07-29T06:48:30;13.03;;;11.83;;
12788;SDS011;6458;42.710;23.192;2022-07-29T06:50:58;12.27;;;11.00;;
12788;SDS011;6458;42.710;23.192;2022-07-29T06:53:25;13.63;;;12.17;;
12788;SDS011;6458;42.710;23.192;2022-07-29T06:55:52;13.13;;;11.73;;
12788;SDS011;6458;42.710;23.192;2022-07-29T06:58:19;12.40;;;11.13;;
12788;SDS011;6458;42.710;23.192;2022-07-29T07:00:48;13.10;;;11.67;;
12788;SDS011;6458;42.710;23.192;2022-07-29T07:03:15;13.27;;;11.87;;
12788;SDS011;6458;42.710;23.192;2022-07-29T07:05:43;12.43;;;11.23;;
12788;SDS011;6458;42.710;23.192;2022-07-29T07:08:11;13.47;;;11.80;;
12788;SDS011;6458;42.710;23.192;2022-07-29T07:10:39;11.87;;;10.60;;
12788;SDS011;6458;42.710;23.192;2022-07-29T07:13:06;12.00;;;10.80;;
12788;SDS011;6458;42.710;23.192;2022-07-29T07:15:33;12.43;;;11.13;;
12788;SDS011;6458;42.710;23.192;2022-07-29T07:18:03;12.43;;;11.13;;
12788;SDS011;6458;42.710;23.192;2022-07-29T07:20:30;12.00;;;9.80;;
12788;SDS011;6458;42.710;23.192;2022-07-29T07:22:57;12.07;;;10.90;;
12788;SDS011;6458;42.710;23.192;2022-07-29T07:25:24;12.40;;;11.13;;
12788;SDS011;6458;42.710;23.192;2022-07-29T07:27:52;13.43;;;12.00;;
12788;SDS011;6458;42.710;23.192;2022-07-29T07:30:19;12.33;;;11.10;;
12788;SDS011;6458;42.710;23.192;2022-07-29T07:32:46;11.40;;;10.30;;
12788;SDS011;6458;42.710;23.192;2022-07-29T07:35:14;11.47;;;10.27;;
12788;SDS011;6458;42.710;23.192;2022-07-29T07:37:42;11.50;;;10.40;;
12788;SDS011;6458;42.710;23.192;2022-07-29T07:40:10;11.80;;;10.07;;
12788;SDS011;6458;42.710;23.192;2022-07-29T07:42:37;12.77;;;9.73;;
12788;SDS011;6458;42.710;23.192;2022-07-29T07:45:05;10.93;;;9.90;;
12788;SDS011;6458;42.710;23.192;2022-07-29T07:50:05;10.03;;;9.00;;
12788;SDS011;6458;42.710;23.192;2022-07-29T07:52:37;9.40;;;8.47;;
12788;SDS011;6458;42.710;23.192;2022-07-29T07:55:12;9.57;;;8.57;;
12788;SDS011;6458;42.710;23.192;2022-07-29T07:57:39;9.23;;;8.53;;
12788;SDS011;6458;42.710;23.192;2022-07-29T08:00:07;8.87;;;8.07;;
12788;SDS011;6458;42.710;23.192;2022-07-29T08:02:35;5.53;;;5.13;;
12788;SDS011;6458;42.710;23.192;2022-07-29T08:05:02;5.47;;;5.07;;
12788;SDS011;6458;42.710;23.192;2022-07-29T08:07:29;6.13;;;5.73;;
12788;SDS011;6458;42.710;23.192;2022-07-29T08:09:58;6.47;;;5.97;;
12788;SDS011;6458;42.710;23.192;2022-07-29T08:12:25;6.60;;;6.00;;
12788;SDS011;6458;42.710;23.192;2022-07-29T08:14:52;5.60;;;5.30;;
12788;SDS011;6458;42.710;23.192;2022-07-29T08:17:19;6.30;;;5.80;;
12788;SDS011;6458;42.710;23.192;2022-07-29T08:19:46;6.37;;;5.77;;
12788;SDS011;6458;42.710;23.192;2022-07-29T08:22:16;6.50;;;6.10;;
12788;SDS011;6458;42.710;23.192;2022-07-29T08:24:43;6.20;;;5.70;;
12788;SDS011;6458;42.710;23.192;2022-07-29T08:27:18;5.87;;;5.47;;
12788;SDS011;6458;42.710;23.192;2022-07-29T08:29:46;5.80;;;5.50;;
12788;SDS011;6458;42.710;23.192;2022-07-29T08:32:13;5.97;;;5.40;;
12788;SDS011;6458;42.710;23.192;2022-07-29T08:34:40;5.97;;;5.53;;
12788;SDS011;6458;42.710;23.192;2022-07-29T08:37:07;6.53;;;6.03;;
12788;SDS011;6458;42.710;23.192;2022-07-29T08:39:34;6.53;;;5.93;;
12788;SDS011;6458;42.710;23.192;2022-07-29T08:42:01;6.30;;;5.80;;
12788;SDS011;6458;42.710;23.192;2022-07-29T08:44:30;6.33;;;5.83;;
12788;SDS011;6458;42.710;23.192;2022-07-29T08:46:58;6.10;;;5.60;;
12788;SDS011;6458;42.710;23.192;2022-07-29T08:49:25;5.17;;;4.87;;
12788;SDS011;6458;42.710;23.192;2022-07-29T08:51:52;5.10;;;4.57;;
12788;SDS011;6458;42.710;23.192;2022-07-29T08:54:21;5.60;;;5.30;;
12788;SDS011;6458;42.710;23.192;2022-07-29T08:56:50;5.70;;;5.20;;
12788;SDS011;6458;42.710;23.192;2022-07-29T08:59:18;5.50;;;5.10;;
12788;SDS011;6458;42.710;23.192;2022-07-29T09:01:48;5.53;;;5.13;;
12788;SDS011;6458;42.710;23.192;2022-07-29T09:04:18;5.57;;;5.23;;
12788;SDS011;6458;42.710;23.192;2022-07-29T09:06:47;5.13;;;4.83;;
12788;SDS011;6458;42.710;23.192;2022-07-29T09:09:16;5.37;;;5.00;;
12788;SDS011;6458;42.710;23.192;2022-07-29T09:11:44;5.43;;;5.03;;
12788;SDS011;6458;42.710;23.192;2022-07-29T09:14:12;5.07;;;4.77;;
12788;SDS011;6458;42.710;23.192;2022-07-29T09:16:46;5.30;;;5.00;;
12788;SDS011;6458;42.710;23.192;2022-07-29T09:19:26;5.60;;;5.03;;
12788;SDS011;6458;42.710;23.192;2022-07-29T09:21:54;4.97;;;4.67;;
12788;SDS011;6458;42.710;23.192;2022-07-29T09:24:24;5.20;;;4.70;;
12788;SDS011;6458;42.710;23.192;2022-07-29T09:26:52;4.80;;;4.60;;
12788;SDS011;6458;42.710;23.192;2022-07-29T09:29:20;4.70;;;4.40;;
12788;SDS011;6458;42.710;23.192;2022-07-29T09:31:49;4.93;;;4.63;;
12788;SDS011;6458;42.710;23.192;2022-07-29T09:34:20;5.17;;;4.77;;
12788;SDS011;6458;42.710;23.192;2022-07-29T09:36:51;4.87;;;4.53;;
12788;SDS011;6458;42.710;23.192;2022-07-29T09:39:26;4.93;;;4.63;;
12788;SDS011;6458;42.710;23.192;2022-07-29T09:41:55;5.20;;;4.90;;
12788;SDS011;6458;42.710;23.192;2022-07-29T09:44:40;4.60;;;4.40;;
12788;SDS011;6458;42.710;23.192;2022-07-29T09:47:11;4.57;;;4.30;;
12788;SDS011;6458;42.710;23.192;2022-07-29T09:49:51;4.63;;;4.33;;
12788;SDS011;6458;42.710;23.192;2022-07-29T09:52:24;4.73;;;4.43;;
12788;SDS011;6458;42.710;23.192;2022-07-29T09:54:53;5.30;;;4.90;;
12788;SDS011;6458;42.710;23.192;2022-07-29T09:57:32;4.67;;;4.47;;
12788;SDS011;6458;42.710;23.192;2022-07-29T10:00:00;4.90;;;4.60;;
12788;SDS011;6458;42.710;23.192;2022-07-29T10:02:31;5.17;;;4.43;;
12788;SDS011;6458;42.710;23.192;2022-07-29T10:05:00;4.40;;;4.20;;
12788;SDS011;6458;42.710;23.192;2022-07-29T10:07:42;4.00;;;3.80;;
12788;SDS011;6458;42.710;23.192;2022-07-29T10:10:17;5.00;;;4.60;;
12788;SDS011;6458;42.710;23.192;2022-07-29T10:12:49;4.63;;;4.03;;
12788;SDS011;6458;42.710;23.192;2022-07-29T10:15:18;4.83;;;4.53;;
12788;SDS011;6458;42.710;23.192;2022-07-29T10:17:45;4.90;;;4.60;;
12788;SDS011;6458;42.710;23.192;2022-07-29T10:20:14;4.50;;;4.30;;
12788;SDS011;6458;42.710;23.192;2022-07-29T10:22:44;4.77;;;4.43;;
12788;SDS011;6458;42.710;23.192;2022-07-29T10:25:12;4.93;;;4.63;;
12788;SDS011;6458;42.710;23.192;2022-07-29T10:27:40;4.93;;;4.53;;
12788;SDS011;6458;42.710;23.192;2022-07-29T10:30:08;4.77;;;4.37;;
12788;SDS011;6458;42.710;23.192;2022-07-29T10:32:39;4.87;;;4.57;;
12788;SDS011;6458;42.710;23.192;2022-07-29T10:41:36;5.60;;;5.20;;
12788;SDS011;6458;42.710;23.192;2022-07-29T10:44:14;5.10;;;4.57;;
12788;SDS011;6458;42.710;23.192;2022-07-29T10:46:43;5.40;;;5.00;;
12788;SDS011;6458;42.710;23.192;2022-07-29T10:49:12;5.30;;;4.90;;
12788;SDS011;6458;42.710;23.192;2022-07-29T10:51:56;5.07;;;4.77;;
12788;SDS011;6458;42.710;23.192;2022-07-29T10:54:40;5.13;;;4.83;;
12788;SDS011;6458;42.710;23.192;2022-07-29T10:57:10;5.13;;;4.73;;
12788;SDS011;6458;42.710;23.192;2022-07-29T11:02:59;6.40;;;5.73;;
12788;SDS011;6458;42.710;23.192;2022-07-29T11:05:29;6.00;;;5.50;;
12788;SDS011;6458;42.710;23.192;2022-07-29T11:08:19;5.77;;;5.37;;
12788;SDS011;6458;42.710;23.192;2022-07-29T11:10:50;6.67;;;6.03;;
12788;SDS011;6458;42.710;23.192;2022-07-29T11:16:13;5.87;;;5.47;;
12788;SDS011;6458;42.710;23.192;2022-07-29T11:21:45;5.83;;;5.43;;
12788;SDS011;6458;42.710;23.192;2022-07-29T11:24:15;5.90;;;5.50;;
12788;SDS011;6458;42.710;23.192;2022-07-29T11:26:47;6.77;;;6.27;;
12788;SDS011;6458;42.710;23.192;2022-07-29T11:29:33;5.60;;;5.30;;
12788;SDS011;6458;42.710;23.192;2022-07-29T11:32:08;5.67;;;5.27;;
12788;SDS011;6458;42.710;23.192;2022-07-29T11:34:36;5.77;;;5.37;;
12788;SDS011;6458;42.710;23.192;2022-07-29T11:37:21;5.80;;;5.50;;
12788;SDS011;6458;42.710;23.192;2022-07-29T11:40:09;5.90;;;5.40;;
12788;SDS011;6458;42.710;23.192;2022-07-29T11:42:44;6.37;;;5.80;;
12788;SDS011;6458;42.710;23.192;2022-07-29T11:45:18;5.33;;;5.03;;
12788;SDS011;6458;42.710;23.192;2022-07-29T11:47:48;5.60;;;5.10;;
12788;SDS011;6458;42.710;23.192;2022-07-29T11:50:17;5.10;;;4.80;;
12788;SDS011;6458;42.710;23.192;2022-07-29T11:52:53;5.47;;;5.00;;
12788;SDS011;6458;42.710;23.192;2022-07-29T11:55:21;5.33;;;5.03;;
12788;SDS011;6458;42.710;23.192;2022-07-29T11:57:51;5.50;;;5.10;;
12788;SDS011;6458;42.710;23.192;2022-07-29T12:00:22;5.43;;;5.13;;
12788;SDS011;6458;42.710;23.192;2022-07-29T12:02:51;6.03;;;5.63;;
12788;SDS011;6458;42.710;23.192;2022-07-29T12:05:18;5.60;;;5.20;;
12788;SDS011;6458;42.710;23.192;2022-07-29T12:07:46;6.30;;;5.80;;
12788;SDS011;6458;42.710;23.192;2022-07-29T12:10:14;5.70;;;5.30;;
12788;SDS011;6458;42.710;23.192;2022-07-29T12:12:42;5.47;;;5.17;;
12788;SDS011;6458;42.710;23.192;2022-07-29T12:15:14;5.90;;;5.43;;
12788;SDS011;6458;42.710;23.192;2022-07-29T12:17:50;5.80;;;5.40;;
12788;SDS011;6458;42.710;23.192;2022-07-29T12:20:22;6.00;;;5.60;;
12788;SDS011;6458;42.710;23.192;2022-07-29T12:22:50;5.97;;;5.57;;
12788;SDS011;6458;42.710;23.192;2022-07-29T12:25:19;6.33;;;5.83;;
12788;SDS011;6458;42.710;23.192;2022-07-29T12:27:47;6.20;;;5.80;;
12788;SDS011;6458;42.710;23.192;2022-07-29T12:30:33;5.93;;;5.53;;
12788;SDS011;6458;42.710;23.192;2022-07-29T12:33:18;5.80;;;5.40;;
12788;SDS011;6458;42.710;23.192;2022-07-29T12:35:48;6.20;;;5.80;;
12788;SDS011;6458;42.710;23.192;2022-07-29T12:38:17;5.70;;;5.20;;
12788;SDS011;6458;42.710;23.192;2022-07-29T12:40:45;5.87;;;5.37;;
12788;SDS011;6458;42.710;23.192;2022-07-29T12:43:14;6.07;;;5.57;;
12788;SDS011;6458;42.710;23.192;2022-07-29T12:45:44;6.27;;;5.87;;
12788;SDS011;6458;42.710;23.192;2022-07-29T12:48:12;6.17;;;5.77;;
12788;SDS011;6458;42.710;23.192;2022-07-29T12:50:53;6.40;;;5.90;;
12788;SDS011;6458;42.710;23.192;2022-07-29T12:53:22;6.33;;;5.83;;
12788;SDS011;6458;42.710;23.192;2022-07-29T12:55:51;6.53;;;6.13;;
12788;SDS011;6458;42.710;23.192;2022-07-29T12:58:29;6.30;;;5.80;;
12788;SDS011;6458;42.710;23.192;2022-07-29T13:01:07;6.10;;;5.57;;
12788;SDS011;6458;42.710;23.192;2022-07-29T13:03:49;6.27;;;5.80;;
12788;SDS011;6458;42.710;23.192;2022-07-29T13:06:27;5.50;;;5.20;;
12788;SDS011;6458;42.710;23.192;2022-07-29T13:08:59;5.50;;;5.00;;
12788;SDS011;6458;42.710;23.192;2022-07-29T13:11:28;5.93;;;5.43;;
12788;SDS011;6458;42.710;23.192;2022-07-29T13:13:56;5.83;;;5.47;;
12788;SDS011;6458;42.710;23.192;2022-07-29T13:16:25;6.20;;;5.80;;
12788;SDS011;6458;42.710;23.192;2022-07-29T13:21:36;6.37;;;5.70;;
12788;SDS011;6458;42.710;23.192;2022-07-29T13:24:05;6.07;;;5.57;;
12788;SDS011;6458;42.710;23.192;2022-07-29T13:26:32;5.57;;;5.27;;
12788;SDS011;6458;42.710;23.192;2022-07-29T13:29:00;6.03;;;5.70;;
12788;SDS011;6458;42.710;23.192;2022-07-29T13:31:28;6.23;;;5.83;;
12788;SDS011;6458;42.710;23.192;2022-07-29T13:33:55;6.10;;;5.70;;
12788;SDS011;6458;42.710;23.192;2022-07-29T13:36:23;6.30;;;5.90;;
12788;SDS011;6458;42.710;23.192;2022-07-29T13:38:51;6.10;;;5.80;;
12788;SDS011;6458;42.710;23.192;2022-07-29T13:41:18;6.20;;;5.73;;
12788;SDS011;6458;42.710;23.192;2022-07-29T13:43:45;6.07;;;5.67;;
12788;SDS011;6458;42.710;23.192;2022-07-29T13:46:12;6.23;;;5.83;;
12788;SDS011;6458;42.710;23.192;2022-07-29T13:48:43;5.97;;;5.40;;
12788;SDS011;6458;42.710;23.192;2022-07-29T13:51:10;6.23;;;5.83;;
12788;SDS011;6458;42.710;23.192;2022-07-29T13:53:37;6.47;;;6.07;;
12788;SDS011;6458;42.710;23.192;2022-07-29T13:56:04;6.17;;;5.77;;
12788;SDS011;6458;42.710;23.192;2022-07-29T13:58:32;6.13;;;5.70;;
12788;SDS011;6458;42.710;23.192;2022-07-29T14:00:59;5.60;;;5.30;;
12788;SDS011;6458;42.710;23.192;2022-07-29T14:03:26;6.27;;;5.87;;
12788;SDS011;6458;42.710;23.192;2022-07-29T14:05:55;6.27;;;5.87;;
12788;SDS011;6458;42.710;23.192;2022-07-29T14:08:24;6.30;;;5.90;;
12788;SDS011;6458;42.710;23.192;2022-07-29T14:10:52;5.53;;;5.20;;
12788;SDS011;6458;42.710;23.192;2022-07-29T14:13:19;6.67;;;6.17;;
12788;SDS011;6458;42.710;23.192;2022-07-29T14:15:46;6.27;;;5.87;;
12788;SDS011;6458;42.710;23.192;2022-07-29T14:18:13;6.93;;;6.50;;
12788;SDS011;6458;42.710;23.192;2022-07-29T14:20:40;6.43;;;5.97;;
12788;SDS011;6458;42.710;23.192;2022-07-29T14:23:08;6.47;;;5.93;;
12788;SDS011;6458;42.710;23.192;2022-07-29T14:25:35;6.20;;;5.60;;
12788;SDS011;6458;42.710;23.192;2022-07-29T14:28:02;5.70;;;5.40;;
12788;SDS011;6458;42.710;23.192;2022-07-29T14:30:29;5.70;;;5.30;;
12788;SDS011;6458;42.710;23.192;2022-07-29T14:32:56;6.00;;;5.60;;
12788;SDS011;6458;42.710;23.192;2022-07-29T14:35:23;5.47;;;5.10;;
12788;SDS011;6458;42.710;23.192;2022-07-29T14:37:50;5.20;;;4.90;;
12788;SDS011;6458;42.710;23.192;2022-07-29T14:40:19;6.10;;;5.70;;
12788;SDS011;6458;42.710;23.192;2022-07-29T14:42:46;5.33;;;5.00;;
12788;SDS011;6458;42.710;23.192;2022-07-29T14:45:13;5.53;;;5.13;;
12788;SDS011;6458;42.710;23.192;2022-07-29T14:47:40;5.53;;;5.20;;
12788;SDS011;6458;42.710;23.192;2022-07-29T14:50:07;5.17;;;4.87;;
12788;SDS011;6458;42.710;23.192;2022-07-29T14:52:35;5.83;;;5.43;;
12788;SDS011;6458;42.710;23.192;2022-07-29T14:55:03;5.60;;;5.30;;
12788;SDS011;6458;42.710;23.192;2022-07-29T14:57:32;6.10;;;5.70;;
12788;SDS011;6458;42.710;23.192;2022-07-29T14:59:59;4.93;;;4.63;;
12788;SDS011;6458;42.710;23.192;2022-07-29T15:02:26;5.23;;;4.83;;
12788;SDS011;6458;42.710;23.192;2022-07-29T15:04:52;5.67;;;5.27;;
12788;SDS011;6458;42.710;23.192;2022-07-29T15:07:20;5.30;;;5.00;;
12788;SDS011;6458;42.710;23.192;2022-07-29T15:09:46;5.73;;;5.30;;
12788;SDS011;6458;42.710;23.192;2022-07-29T15:12:13;5.90;;;5.57;;